createdAt,value
2022-10-15T00:01:49.742Z,68.88
2022-10-15T00:04:18.749Z,68.19
2022-10-15T00:06:47.401Z,69.16
2022-10-15T00:09:16.019Z,67.91
2022-10-15T00:11:44.484Z,68.94
2022-10-15T00:14:12.986Z,68.33
2022-10-15T00:16:42.873Z,68.94
2022-10-15T00:19:11.726Z,67.79
2022-10-15T00:21:40.933Z,68.20
2022-10-15T00:24:09.782Z,68.71
2022-10-15T00:26:38.309Z,68.28
2022-10-15T00:29:06.868Z,67.63
2022-10-15T00:31:35.658Z,69.03
2022-10-15T00:34:05.618Z,69.81
2022-10-15T00:36:36.875Z,69.83
2022-10-15T00:39:07.392Z,69.68
2022-10-15T00:41:38.237Z,69.09
2022-10-15T00:44:40.102Z,69.41
2022-10-15T00:47:15.857Z,69.70
2022-10-15T00:49:50.271Z,68.71
2022-10-15T00:52:22.652Z,67.44
2022-10-15T00:54:56.890Z,68.36
2022-10-15T00:57:26.390Z,68.67
2022-10-15T01:00:00.026Z,68.27
2022-10-15T01:02:28.460Z,69.39
2022-10-15T01:04:58.356Z,69.63
2022-10-15T01:07:26.925Z,70.75
2022-10-15T01:09:55.504Z,70.22
2022-10-15T01:12:35.169Z,69.26
2022-10-15T01:15:11.124Z,68.97
2022-10-15T01:17:47.190Z,69.56
2022-10-15T01:20:48.998Z,68.14
2022-10-15T01:23:55.001Z,68.70
2022-10-15T01:27:09.912Z,67.65
2022-10-15T01:30:20.085Z,66.44
2022-10-15T01:33:05.414Z,66.78
2022-10-15T01:35:46.270Z,67.48
2022-10-15T01:38:27.993Z,67.43
2022-10-15T01:40:59.910Z,67.29
2022-10-15T01:43:37.018Z,66.28
2022-10-15T01:46:36.147Z,66.67
2022-10-15T01:49:10.029Z,66.07
2022-10-15T01:51:41.543Z,65.41
2022-10-15T01:54:15.638Z,65.31
2022-10-15T01:56:49.807Z,65.14
2022-10-15T01:59:25.238Z,66.70
2022-10-15T02:02:01.144Z,65.93
2022-10-15T02:04:56.982Z,67.03
2022-10-15T02:07:36.132Z,66.01
2022-10-15T02:10:15.057Z,66.42
2022-10-15T02:12:52.762Z,65.31
2022-10-15T02:15:29.584Z,64.57
2022-10-15T02:18:06.563Z,64.29
2022-10-15T02:20:44.648Z,66.83
2022-10-15T02:23:20.359Z,67.43
2022-10-15T02:25:52.390Z,65.62
2022-10-15T02:28:23.236Z,64.92
2022-10-15T02:31:20.241Z,63.68
2022-10-15T02:33:51.806Z,63.93
2022-10-15T02:36:22.333Z,66.26
2022-10-15T02:38:53.535Z,66.37
2022-10-15T02:41:22.760Z,66.73
2022-10-15T02:43:51.947Z,67.30
2022-10-15T02:46:21.370Z,66.18
2022-10-15T02:48:50.270Z,65.51
2022-10-15T02:51:21.434Z,65.31
2022-10-15T02:53:50.109Z,65.98
2022-10-15T02:56:20.643Z,65.33
2022-10-15T02:58:49.715Z,65.19
2022-10-15T03:01:20.416Z,64.40
2022-10-15T03:03:50.035Z,63.60
2022-10-15T03:06:19.328Z,64.21
2022-10-15T03:08:51.232Z,64.74
2022-10-15T03:11:19.643Z,64.91
2022-10-15T03:13:48.399Z,65.70
2022-10-15T03:16:16.883Z,66.15
2022-10-15T03:18:47.807Z,67.10
2022-10-15T03:21:17.854Z,66.80
2022-10-15T03:23:46.757Z,68.39
2022-10-15T03:26:21.890Z,68.40
2022-10-15T03:28:51.934Z,69.14
2022-10-15T03:31:34.002Z,69.09
2022-10-15T03:34:05.220Z,68.88
2022-10-15T03:36:34.288Z,70.42
2022-10-15T03:39:06.335Z,69.97
2022-10-15T03:41:36.960Z,69.81
2022-10-15T03:44:09.122Z,70.05
2022-10-15T03:46:42.340Z,68.67
2022-10-15T03:49:11.945Z,68.36
2022-10-15T03:51:41.250Z,68.38
2022-10-15T03:54:13.425Z,67.30
2022-10-15T03:56:51.059Z,67.56
2022-10-15T03:59:26.733Z,66.91
2022-10-15T04:02:01.146Z,67.14
2022-10-15T04:04:30.545Z,65.71
2022-10-15T04:06:59.475Z,65.19
2022-10-15T04:09:28.261Z,68.02
2022-10-15T04:12:19.018Z,66.57
2022-10-15T04:14:48.225Z,66.60
2022-10-15T04:17:17.843Z,66.94
2022-10-15T04:19:47.799Z,68.81
2022-10-15T04:22:17.855Z,68.69
2022-10-15T04:24:51.323Z,68.72
2022-10-15T04:27:29.982Z,67.71
2022-10-15T04:30:12.899Z,68.27
2022-10-15T04:32:46.734Z,69.08
2022-10-15T04:35:16.400Z,68.47
2022-10-15T04:37:54.427Z,67.76
2022-10-15T04:40:22.960Z,67.46
2022-10-15T04:42:53.531Z,67.94
2022-10-15T04:47:58.294Z,71.03
2022-10-15T04:50:27.552Z,69.40
2022-10-15T04:53:32.085Z,69.64
2022-10-15T04:56:02.409Z,69.83
2022-10-15T04:58:33.614Z,68.99
2022-10-15T05:01:03.365Z,68.64
2022-10-15T05:03:38.621Z,70.56
2022-10-15T05:06:11.912Z,68.03
2022-10-15T05:08:43.481Z,66.00
2022-10-15T05:11:23.175Z,67.13
2022-10-15T05:13:56.478Z,68.42
2022-10-15T05:16:28.475Z,69.11
2022-10-15T05:19:00.576Z,68.82
2022-10-15T05:21:32.804Z,67.60
2022-10-15T05:24:06.096Z,67.13
2022-10-15T05:26:55.400Z,67.76
2022-10-15T05:29:26.847Z,67.04
2022-10-15T05:31:55.973Z,66.73
2022-10-15T05:34:30.528Z,67.22
2022-10-15T05:37:06.626Z,69.55
2022-10-15T05:39:35.258Z,68.01
2022-10-15T05:42:03.656Z,68.92
2022-10-15T05:44:48.449Z,67.20
2022-10-15T05:47:17.315Z,67.10
2022-10-15T05:49:49.554Z,67.67
2022-10-15T05:52:26.276Z,66.47
2022-10-15T05:55:14.346Z,65.09
2022-10-15T05:57:43.144Z,64.39
2022-10-15T06:00:15.116Z,64.31
2022-10-15T06:02:43.756Z,64.32
2022-10-15T06:05:13.167Z,64.55
2022-10-15T06:07:42.008Z,65.29
2022-10-15T06:10:11.313Z,65.22
2022-10-15T06:12:39.766Z,66.15
2022-10-15T06:15:09.343Z,67.74
2022-10-15T06:17:40.283Z,66.76
2022-10-15T06:20:09.532Z,64.99
2022-10-15T06:22:38.771Z,65.60
2022-10-15T06:25:09.385Z,64.79
2022-10-15T06:27:38.037Z,65.53
2022-10-15T06:30:07.839Z,65.62
2022-10-15T06:32:36.593Z,65.59
2022-10-15T06:35:07.567Z,66.38
2022-10-15T06:37:36.428Z,66.88
2022-10-15T06:40:05.551Z,69.11
2022-10-15T06:42:35.410Z,66.92
2022-10-15T06:45:04.316Z,68.01
2022-10-15T06:47:33.404Z,71.37
2022-10-15T06:50:02.378Z,70.93
2022-10-15T06:52:33.480Z,70.21
2022-10-15T06:55:02.012Z,70.98
2022-10-15T06:57:30.853Z,70.80
2022-10-15T06:59:59.704Z,70.51
2022-10-15T07:02:28.009Z,68.37
2022-10-15T07:04:57.706Z,67.27
2022-10-15T07:07:26.707Z,66.56
2022-10-15T07:09:56.875Z,66.79
2022-10-15T07:12:25.668Z,65.51
2022-10-15T07:14:54.394Z,65.74
2022-10-15T07:17:26.381Z,69.89
2022-10-15T07:19:57.307Z,68.60
2022-10-15T07:22:43.807Z,68.79
2022-10-15T07:25:20.328Z,67.79
2022-10-15T07:27:51.247Z,69.42
2022-10-15T07:30:20.633Z,69.45
2022-10-15T07:32:50.730Z,69.16
2022-10-15T07:35:22.247Z,68.26
2022-10-15T07:38:02.640Z,69.37
2022-10-15T07:40:39.818Z,70.13
2022-10-15T07:43:11.490Z,70.26
2022-10-15T07:45:41.981Z,70.28
2022-10-15T07:48:10.568Z,71.17
2022-10-15T07:50:42.305Z,69.70
2022-10-15T07:53:18.043Z,69.47
2022-10-15T07:55:54.872Z,69.58
2022-10-15T07:58:23.888Z,69.88
2022-10-15T08:00:57.790Z,68.23
2022-10-15T08:03:35.527Z,68.11
2022-10-15T08:06:23.240Z,70.78
2022-10-15T08:08:54.587Z,69.40
2022-10-15T08:11:58.158Z,70.26
2022-10-15T08:14:29.648Z,68.77
2022-10-15T08:17:00.685Z,70.76
2022-10-15T08:19:33.701Z,70.82
2022-10-15T08:28:05.690Z,67.40
2022-10-15T08:30:46.504Z,67.06
2022-10-15T08:33:47.185Z,67.02
2022-10-15T08:36:16.596Z,67.93
2022-10-15T08:39:13.469Z,66.39
2022-10-15T08:41:50.499Z,68.67
2022-10-15T08:44:59.196Z,67.32
2022-10-15T08:47:39.993Z,68.09
2022-10-15T08:50:45.297Z,70.29
2022-10-15T08:53:30.318Z,67.50
2022-10-15T08:56:48.373Z,66.16
2022-10-15T08:59:29.846Z,64.29
2022-10-15T09:02:16.364Z,64.95
2022-10-15T09:05:00.302Z,64.81
2022-10-15T09:10:59.117Z,66.22
2022-10-15T09:13:44.284Z,66.25
2022-10-15T09:16:16.988Z,66.66
2022-10-15T09:19:02.364Z,64.78
2022-10-15T09:21:33.206Z,66.53
2022-10-15T09:24:07.375Z,66.39
2022-10-15T09:26:56.167Z,67.19
2022-10-15T09:29:39.511Z,67.13
2022-10-15T09:32:42.138Z,69.82
2022-10-15T09:38:38.186Z,69.90
2022-10-15T09:41:18.390Z,68.01
2022-10-15T09:43:51.398Z,65.46
2022-10-15T09:46:25.306Z,65.96
2022-10-15T09:49:04.719Z,66.30
2022-10-15T09:51:39.439Z,64.65
2022-10-15T09:54:19.030Z,64.64
2022-10-15T09:57:00.211Z,65.75
2022-10-15T09:59:34.170Z,65.41
2022-10-15T10:02:21.234Z,65.89
2022-10-15T10:04:59.550Z,66.67
2022-10-15T10:07:35.214Z,66.24
2022-10-15T10:10:31.479Z,64.21
2022-10-15T10:13:00.301Z,66.09
2022-10-15T10:15:35.447Z,63.86
2022-10-15T10:18:08.068Z,64.16
2022-10-15T10:20:54.910Z,65.75
2022-10-15T10:23:33.745Z,66.40
2022-10-15T10:26:03.787Z,67.11
2022-10-15T10:28:39.332Z,67.27
2022-10-15T10:31:12.789Z,66.94
2022-10-15T10:33:47.862Z,67.18
2022-10-15T10:36:30.836Z,66.05
2022-10-15T10:39:40.405Z,65.46
2022-10-15T10:42:24.470Z,67.05
2022-10-15T10:45:01.281Z,66.22
2022-10-15T10:47:40.735Z,67.23
2022-10-15T10:50:29.282Z,67.75
2022-10-15T10:53:00.729Z,67.48
2022-10-15T10:55:43.334Z,65.87
2022-10-15T10:58:22.155Z,67.13
2022-10-15T11:00:55.692Z,66.80
2022-10-15T11:03:32.863Z,67.16
2022-10-15T11:06:17.711Z,67.08
2022-10-15T11:08:56.984Z,65.78
2022-10-15T11:11:39.442Z,65.89
2022-10-15T11:14:20.031Z,65.41
2022-10-15T11:17:02.152Z,66.85
2022-10-15T11:22:49.824Z,66.51
2022-10-15T11:25:30.712Z,64.40
2022-10-15T11:28:14.889Z,63.99
2022-10-15T11:30:52.112Z,65.02
2022-10-15T11:33:41.591Z,65.17
2022-10-15T11:36:33.521Z,64.49
2022-10-15T11:39:19.348Z,66.15
2022-10-15T11:41:55.692Z,65.52
2022-10-15T11:44:37.193Z,63.90
2022-10-15T11:47:32.677Z,64.37
2022-10-15T11:50:15.084Z,64.97
2022-10-15T11:53:11.081Z,65.01
2022-10-15T11:55:43.517Z,64.98
2022-10-15T11:58:18.177Z,63.86
2022-10-15T12:00:53.217Z,63.61
2022-10-15T12:03:26.183Z,64.19
2022-10-15T12:05:58.671Z,65.16
2022-10-15T12:08:32.447Z,65.49
2022-10-15T12:11:15.681Z,65.46
2022-10-15T12:13:52.046Z,65.60
2022-10-15T12:16:30.252Z,65.34
2022-10-15T12:19:09.018Z,65.46
2022-10-15T12:21:40.845Z,66.08
2022-10-15T12:24:50.396Z,66.34
2022-10-15T12:27:37.069Z,65.58
2022-10-15T12:30:24.035Z,65.33
2022-10-15T12:32:55.647Z,64.97
2022-10-15T12:35:37.088Z,65.05
2022-10-15T12:38:20.391Z,64.58
2022-10-15T12:40:57.720Z,65.04
2022-10-15T12:43:28.183Z,65.41
2022-10-15T12:45:59.318Z,64.74
2022-10-15T12:48:48.127Z,67.09
2022-10-15T12:51:41.553Z,65.43
2022-10-15T12:54:36.983Z,66.46
2022-10-15T12:57:58.908Z,65.50
2022-10-15T13:00:39.584Z,63.89
2022-10-15T13:03:33.006Z,66.40
2022-10-15T13:06:35.620Z,66.22
2022-10-15T13:09:26.198Z,65.09
2022-10-15T13:11:57.156Z,64.28
2022-10-15T13:14:31.585Z,65.94
2022-10-15T13:17:04.124Z,65.00
2022-10-15T13:19:38.336Z,64.83
2022-10-15T13:22:20.980Z,62.84
2022-10-15T13:24:51.217Z,61.95
2022-10-15T13:27:24.725Z,62.11
2022-10-15T13:29:58.991Z,61.79
2022-10-15T13:32:30.582Z,62.84
2022-10-15T13:35:00.654Z,63.56
2022-10-15T13:37:33.484Z,62.99
2022-10-15T13:40:07.916Z,61.58
2022-10-15T13:42:37.453Z,63.46
2022-10-15T13:45:17.726Z,61.91
2022-10-15T13:47:50.282Z,61.64
2022-10-15T13:50:21.941Z,63.08
2022-10-15T13:52:54.027Z,63.25
2022-10-15T13:55:26.722Z,63.25
2022-10-15T13:58:01.295Z,64.42
2022-10-15T14:00:33.009Z,63.60
2022-10-15T14:03:08.936Z,63.57
2022-10-15T14:05:37.922Z,64.40
2022-10-15T14:08:07.099Z,65.43
2022-10-15T14:10:38.093Z,66.23
2022-10-15T14:13:06.678Z,64.27
2022-10-15T14:15:48.922Z,63.59
2022-10-15T14:18:27.827Z,64.27
2022-10-15T14:20:56.841Z,64.29
2022-10-15T14:23:26.987Z,63.14
2022-10-15T14:26:01.048Z,63.13
2022-10-15T14:28:32.465Z,64.26
2022-10-15T14:31:31.274Z,65.65
2022-10-15T14:34:00.177Z,64.67
2022-10-15T14:36:32.205Z,64.94
2022-10-15T14:39:26.284Z,66.72
2022-10-15T14:42:02.338Z,66.65
2022-10-15T14:44:47.042Z,65.64
2022-10-15T14:47:24.251Z,66.41
2022-10-15T14:49:56.567Z,65.71
2022-10-15T14:52:25.597Z,66.58
2022-10-15T14:55:03.076Z,65.36
2022-10-15T14:57:38.099Z,64.93
2022-10-15T15:00:16.163Z,63.98
2022-10-15T15:02:44.995Z,63.95
2022-10-15T15:05:22.912Z,64.70
2022-10-15T15:07:52.111Z,64.26
2022-10-15T15:10:21.396Z,64.45
2022-10-15T15:12:54.862Z,62.59
2022-10-15T15:15:26.084Z,64.28
2022-10-15T15:17:55.068Z,63.39
2022-10-15T15:20:26.214Z,63.04
2022-10-15T15:22:55.958Z,63.50
2022-10-15T15:25:29.764Z,64.20
2022-10-15T15:28:00.350Z,65.49
2022-10-15T15:30:31.411Z,65.00
2022-10-15T15:33:01.158Z,65.43
2022-10-15T15:35:37.217Z,66.38
2022-10-15T15:38:08.194Z,66.80
2022-10-15T15:40:37.538Z,66.64
2022-10-15T15:43:07.668Z,67.62
2022-10-15T15:45:36.407Z,68.50
2022-10-15T15:48:05.452Z,67.45
2022-10-15T15:50:35.375Z,66.52
2022-10-15T15:53:04.739Z,66.11
2022-10-15T15:55:33.197Z,66.80
2022-10-15T15:58:01.998Z,66.56
2022-10-15T16:00:31.683Z,65.98
2022-10-15T16:03:00.547Z,67.14
2022-10-15T16:05:29.123Z,66.26
2022-10-15T16:07:58.582Z,68.39
2022-10-15T16:10:27.794Z,68.88
2022-10-15T16:12:56.819Z,68.94
2022-10-15T16:15:25.977Z,69.08
2022-10-15T16:17:56.549Z,68.92
2022-10-15T16:20:25.462Z,69.04
2022-10-15T16:22:54.606Z,68.58
2022-10-15T16:25:26.408Z,68.52
2022-10-15T16:28:01.855Z,70.40
2022-10-15T16:30:30.516Z,69.07
2022-10-15T16:33:00.986Z,68.63
2022-10-15T16:35:29.907Z,67.37
2022-10-15T16:37:58.297Z,67.72
2022-10-15T16:40:26.903Z,67.55
2022-10-15T16:42:55.644Z,67.92
2022-10-15T16:45:25.042Z,67.72
2022-10-15T16:47:56.159Z,69.19
2022-10-15T16:50:25.965Z,67.23
2022-10-15T16:52:54.325Z,66.24
2022-10-15T16:55:22.369Z,66.01
2022-10-15T16:57:51.059Z,67.31
2022-10-15T17:00:19.573Z,67.69
2022-10-15T17:02:47.836Z,67.15
2022-10-15T17:05:15.881Z,67.87
2022-10-15T17:07:45.368Z,67.58
2022-10-15T17:10:14.817Z,67.03
2022-10-15T17:12:43.508Z,66.68
2022-10-15T17:15:12.360Z,66.27
2022-10-15T17:17:40.683Z,66.22
2022-10-15T17:20:10.310Z,66.34
2022-10-15T17:22:38.329Z,66.84
2022-10-15T17:25:08.426Z,66.48
2022-10-15T17:27:36.683Z,67.24
2022-10-15T17:30:05.530Z,68.08
2022-10-15T17:32:33.865Z,67.84
2022-10-15T17:35:03.940Z,67.59
2022-10-15T17:37:32.959Z,68.60
2022-10-15T17:40:01.164Z,68.29
2022-10-15T17:42:30.954Z,68.16
2022-10-15T17:44:59.210Z,68.26
2022-10-15T17:47:27.803Z,70.09
2022-10-15T17:49:56.267Z,70.74
2022-10-15T17:52:24.380Z,69.69
2022-10-15T17:54:52.984Z,69.29
2022-10-15T17:57:20.977Z,68.29
2022-10-15T17:59:51.238Z,69.50
2022-10-15T18:02:19.769Z,69.92
2022-10-15T18:04:49.560Z,70.38
2022-10-15T18:07:19.913Z,70.08
2022-10-15T18:09:47.878Z,69.38
2022-10-15T18:12:16.142Z,68.64
2022-10-15T18:14:45.033Z,70.51
2022-10-15T18:17:15.658Z,70.04
2022-10-15T18:19:44.206Z,69.60
2022-10-15T18:22:12.910Z,69.28
2022-10-15T18:24:41.139Z,68.87
2022-10-15T18:27:09.336Z,68.85
2022-10-15T18:29:37.974Z,68.88
2022-10-15T18:32:07.594Z,69.57
2022-10-15T18:34:37.571Z,70.76
2022-10-15T18:37:06.026Z,69.89
2022-10-15T18:39:34.364Z,70.29
2022-10-15T18:42:03.023Z,70.55
2022-10-15T18:44:33.387Z,70.00
2022-10-15T18:47:01.813Z,69.96
2022-10-15T18:49:30.759Z,69.11
2022-10-15T18:52:06.485Z,68.81
2022-10-15T18:54:44.414Z,69.50
2022-10-15T18:57:12.611Z,69.66
2022-10-15T18:59:41.004Z,70.63
2022-10-15T19:02:10.607Z,70.16
2022-10-15T19:04:38.700Z,70.31
2022-10-15T19:07:08.480Z,70.70
2022-10-15T19:09:36.825Z,69.96
2022-10-15T19:12:05.809Z,69.54
2022-10-15T19:14:34.066Z,70.13
2022-10-15T19:17:03.289Z,70.08
2022-10-15T19:19:31.587Z,70.95
2022-10-15T19:22:00.690Z,70.32
2022-10-15T19:24:30.368Z,69.67
2022-10-15T19:26:58.667Z,69.78
2022-10-15T19:29:30.292Z,69.90
2022-10-15T19:32:04.008Z,69.88
2022-10-15T19:34:34.543Z,69.54
2022-10-15T19:37:04.297Z,69.64
2022-10-15T19:39:39.674Z,69.48
2022-10-15T19:42:08.010Z,70.78
2022-10-15T19:44:36.452Z,71.47
2022-10-15T19:47:04.561Z,71.38
2022-10-15T19:49:34.030Z,71.56
2022-10-15T19:52:03.272Z,70.18
2022-10-15T19:54:32.598Z,71.91
2022-10-15T19:57:02.862Z,71.06
2022-10-15T19:59:31.554Z,70.69
2022-10-15T20:02:00.089Z,71.71
2022-10-15T20:04:28.841Z,73.00
2022-10-15T20:06:57.537Z,72.04
2022-10-15T20:09:26.101Z,73.99
2022-10-15T20:11:54.604Z,73.55
2022-10-15T20:14:24.327Z,72.65
2022-10-15T20:16:53.190Z,71.55
2022-10-15T20:19:22.082Z,70.00
2022-10-15T20:21:51.181Z,69.88
2022-10-15T20:24:19.747Z,71.04
2022-10-15T20:26:48.147Z,70.21
2022-10-15T20:29:17.499Z,70.01
2022-10-15T20:31:47.344Z,69.08
2022-10-15T20:34:16.157Z,68.74
2022-10-15T20:36:45.505Z,69.34
2022-10-15T20:39:13.977Z,70.58
2022-10-15T20:41:42.222Z,70.71
2022-10-15T20:44:12.196Z,71.33
2022-10-15T20:46:45.071Z,70.90
2022-10-15T20:49:18.723Z,70.92
2022-10-15T20:51:46.956Z,70.16
2022-10-15T20:54:16.674Z,71.09
2022-10-15T20:56:45.100Z,70.78
2022-10-15T20:59:13.599Z,71.69
2022-10-15T21:01:42.488Z,70.55
2022-10-15T21:04:10.892Z,72.23
2022-10-15T21:06:41.194Z,72.56
2022-10-15T21:09:09.588Z,72.85
2022-10-15T21:11:41.537Z,73.85
2022-10-15T21:14:09.870Z,74.99
2022-10-15T21:16:38.157Z,74.50
2022-10-15T21:19:06.713Z,74.39
2022-10-15T21:21:35.034Z,75.13
2022-10-15T21:24:05.309Z,74.00
2022-10-15T21:26:34.263Z,74.58
2022-10-15T21:29:02.685Z,72.65
2022-10-15T21:31:31.148Z,72.50
2022-10-15T21:33:59.517Z,72.09
2022-10-15T21:36:29.502Z,73.31
2022-10-15T21:39:00.921Z,73.24
2022-10-15T21:41:33.316Z,72.82
2022-10-15T21:44:02.633Z,71.63
2022-10-15T21:46:31.579Z,72.08
2022-10-15T21:49:00.784Z,71.66
2022-10-15T21:51:31.251Z,71.67
2022-10-15T21:54:01.359Z,70.92
2022-10-15T21:56:31.624Z,69.34
2022-10-15T21:59:00.912Z,70.57
2022-10-15T22:01:31.658Z,70.48
2022-10-15T22:04:01.769Z,73.10
2022-10-15T22:06:30.167Z,71.67
2022-10-15T22:08:59.415Z,71.38
2022-10-15T22:11:31.285Z,70.62
2022-10-15T22:14:01.738Z,70.56
2022-10-15T22:16:29.946Z,71.90
2022-10-15T22:18:58.731Z,72.49
2022-10-15T22:21:29.453Z,72.17
2022-10-15T22:23:59.575Z,70.04
2022-10-15T22:26:32.734Z,69.38
2022-10-15T22:29:02.846Z,71.18
2022-10-15T22:31:31.847Z,69.65
2022-10-15T22:34:00.792Z,69.42
2022-10-15T22:36:31.376Z,70.11
2022-10-15T22:39:01.880Z,67.98
2022-10-15T22:41:34.216Z,67.62
2022-10-15T22:44:03.379Z,67.80
2022-10-15T22:46:34.402Z,67.83
2022-10-15T22:49:02.888Z,67.79
2022-10-15T22:51:31.463Z,67.56
2022-10-15T22:54:00.762Z,70.07
2022-10-15T22:56:31.588Z,68.17
2022-10-15T22:59:00.693Z,67.16
2022-10-15T23:01:31.011Z,68.72
2022-10-15T23:04:01.684Z,69.29
2022-10-15T23:06:30.488Z,68.38
2022-10-15T23:08:59.779Z,67.87
2022-10-15T23:11:30.422Z,68.30
2022-10-15T23:14:02.191Z,67.25
2022-10-15T23:16:32.631Z,69.09
2022-10-15T23:19:02.567Z,68.36
2022-10-15T23:21:33.692Z,69.84
2022-10-15T23:24:02.650Z,69.50
2022-10-15T23:26:31.204Z,71.50
2022-10-15T23:29:03.426Z,70.18
2022-10-15T23:31:34.393Z,67.85
2022-10-15T23:34:06.019Z,68.71
2022-10-15T23:36:35.245Z,68.55
2022-10-15T23:39:06.137Z,68.03
2022-10-15T23:41:34.720Z,67.33
2022-10-15T23:44:04.995Z,68.92
2022-10-15T23:46:33.159Z,69.36
2022-10-15T23:49:01.457Z,67.99
2022-10-15T23:51:31.410Z,67.96
2022-10-15T23:54:01.905Z,67.45
2022-10-15T23:56:31.301Z,67.74
2022-10-15T23:59:01.376Z,67.70
